sensor_id;sensor_type;location;lat;lon;timestamp;temperature;humidity
1678;DHT22;6034;46.864;15.216;2022-12-20T00:01:26;-0.70;99.90
1678;DHT22;6034;46.864;15.216;2022-12-20T00:03:54;-0.70;99.90
1678;DHT22;6034;46.864;15.216;2022-12-20T00:06:22;-0.70;99.90
1678;DHT22;6034;46.864;15.216;2022-12-20T00:08:51;-0.70;99.90
1678;DHT22;6034;46.864;15.216;2022-12-20T00:11:18;-0.80;99.90
1678;DHT22;6034;46.864;15.216;2022-12-20T00:13:45;-0.90;99.90
1678;DHT22;6034;46.864;15.216;2022-12-20T00:16:13;-0.90;99.90
1678;DHT22;6034;46.864;15.216;2022-12-20T00:18:41;-0.90;99.90
1678;DHT22;6034;46.864;15.216;2022-12-20T00:21:10;-0.90;99.90
1678;DHT22;6034;46.864;15.216;2022-12-20T00:23:37;-0.90;99.90
1678;DHT22;6034;46.864;15.216;2022-12-20T00:26:05;-1.00;99.90
1678;DHT22;6034;46.864;15.216;2022-12-20T00:28:33;-1.20;99.90
1678;DHT22;6034;46.864;15.216;2022-12-20T00:31:00;-1.10;99.90
1678;DHT22;6034;46.864;15.216;2022-12-20T00:33:27;-0.90;99.90
1678;DHT22;6034;46.864;15.216;2022-12-20T00:35:56;-1.00;99.90
1678;DHT22;6034;46.864;15.216;2022-12-20T00:38:23;-0.90;99.90
1678;DHT22;6034;46.864;15.216;2022-12-20T00:40:57;-0.90;99.90
1678;DHT22;6034;46.864;15.216;2022-12-20T00:43:25;-0.80;99.90
1678;DHT22;6034;46.864;15.216;2022-12-20T00:45:52;-0.80;99.90
1678;DHT22;6034;46.864;15.216;2022-12-20T00:48:19;-0.80;99.90
1678;DHT22;6034;46.864;15.216;2022-12-20T00:50:46;-0.90;99.90
1678;DHT22;6034;46.864;15.216;2022-12-20T00:53:14;-0.90;99.90
1678;DHT22;6034;46.864;15.216;2022-12-20T00:55:41;-1.00;99.90
1678;DHT22;6034;46.864;15.216;2022-12-20T00:58:08;-1.30;99.90
1678;DHT22;6034;46.864;15.216;2022-12-20T01:00:35;-1.00;99.90
1678;DHT22;6034;46.864;15.216;2022-12-20T01:03:02;-1.20;99.90
1678;DHT22;6034;46.864;15.216;2022-12-20T01:05:29;-1.00;99.90
1678;DHT22;6034;46.864;15.216;2022-12-20T01:07:56;-0.90;99.90
1678;DHT22;6034;46.864;15.216;2022-12-20T01:10:25;-0.90;99.90
1678;DHT22;6034;46.864;15.216;2022-12-20T01:12:52;-0.80;99.90
1678;DHT22;6034;46.864;15.216;2022-12-20T01:15:19;-0.90;99.90
1678;DHT22;6034;46.864;15.216;2022-12-20T01:17:46;-1.10;99.90
1678;DHT22;6034;46.864;15.216;2022-12-20T01:20:13;-1.30;99.90
1678;DHT22;6034;46.864;15.216;2022-12-20T01:22:41;-1.20;99.90
1678;DHT22;6034;46.864;15.216;2022-12-20T01:25:08;-1.20;99.90
1678;DHT22;6034;46.864;15.216;2022-12-20T01:27:36;-1.20;99.90
1678;DHT22;6034;46.864;15.216;2022-12-20T01:30:04;-1.40;99.90
1678;DHT22;6034;46.864;15.216;2022-12-20T01:32:31;-1.50;99.90
1678;DHT22;6034;46.864;15.216;2022-12-20T01:34:58;-1.50;99.90
1678;DHT22;6034;46.864;15.216;2022-12-20T01:37:25;-1.50;99.90
1678;DHT22;6034;46.864;15.216;2022-12-20T01:39:52;-1.30;99.90
1678;DHT22;6034;46.864;15.216;2022-12-20T01:42:19;-1.30;99.90
1678;DHT22;6034;46.864;15.216;2022-12-20T01:44:55;-1.60;99.90
1678;DHT22;6034;46.864;15.216;2022-12-20T01:47:23;-1.30;99.90
1678;DHT22;6034;46.864;15.216;2022-12-20T01:49:51;-1.40;99.90
1678;DHT22;6034;46.864;15.216;2022-12-20T01:52:19;-1.40;99.90
1678;DHT22;6034;46.864;15.216;2022-12-20T01:54:48;-1.20;99.90
1678;DHT22;6034;46.864;15.216;2022-12-20T01:57:19;-1.10;99.90
1678;DHT22;6034;46.864;15.216;2022-12-20T01:59:47;-1.10;99.90
1678;DHT22;6034;46.864;15.216;2022-12-20T02:02:17;-1.00;99.90
1678;DHT22;6034;46.864;15.216;2022-12-20T02:04:44;-1.20;99.90
1678;DHT22;6034;46.864;15.216;2022-12-20T02:07:11;-1.10;99.90
1678;DHT22;6034;46.864;15.216;2022-12-20T02:09:43;-1.00;99.90
1678;DHT22;6034;46.864;15.216;2022-12-20T02:12:10;-0.90;99.90
1678;DHT22;6034;46.864;15.216;2022-12-20T02:14:42;-0.90;99.90
1678;DHT22;6034;46.864;15.216;2022-12-20T02:17:15;-0.90;99.90
1678;DHT22;6034;46.864;15.216;2022-12-20T02:20:03;-1.00;99.90
1678;DHT22;6034;46.864;15.216;2022-12-20T02:22:35;-1.20;99.90
1678;DHT22;6034;46.864;15.216;2022-12-20T02:25:16;-1.20;99.90
1678;DHT22;6034;46.864;15.216;2022-12-20T02:27:56;-1.00;99.90
1678;DHT22;6034;46.864;15.216;2022-12-20T02:30:28;-0.90;99.90
1678;DHT22;6034;46.864;15.216;2022-12-20T02:32:58;-0.90;99.90
1678;DHT22;6034;46.864;15.216;2022-12-20T02:35:27;-1.10;99.90
1678;DHT22;6034;46.864;15.216;2022-12-20T02:37:55;-1.20;99.90
1678;DHT22;6034;46.864;15.216;2022-12-20T02:40:23;-1.30;99.90
1678;DHT22;6034;46.864;15.216;2022-12-20T02:42:52;-1.40;99.90
1678;DHT22;6034;46.864;15.216;2022-12-20T02:45:19;-1.30;99.90
1678;DHT22;6034;46.864;15.216;2022-12-20T02:47:49;-1.10;99.90
1678;DHT22;6034;46.864;15.216;2022-12-20T02:50:20;-1.10;99.90
1678;DHT22;6034;46.864;15.216;2022-12-20T02:52:47;-1.00;99.90
1678;DHT22;6034;46.864;15.216;2022-12-20T02:55:15;-1.00;99.90
1678;DHT22;6034;46.864;15.216;2022-12-20T02:57:44;-1.10;99.90
1678;DHT22;6034;46.864;15.216;2022-12-20T03:00:12;-1.10;99.90
1678;DHT22;6034;46.864;15.216;2022-12-20T03:02:39;-1.00;99.90
1678;DHT22;6034;46.864;15.216;2022-12-20T03:05:26;-1.00;99.90
1678;DHT22;6034;46.864;15.216;2022-12-20T03:07:53;-1.00;99.90
1678;DHT22;6034;46.864;15.216;2022-12-20T03:10:20;-1.00;99.90
1678;DHT22;6034;46.864;15.216;2022-12-20T03:12:48;-1.00;99.90
1678;DHT22;6034;46.864;15.216;2022-12-20T03:15:15;-1.10;99.90
1678;DHT22;6034;46.864;15.216;2022-12-20T03:17:42;-1.00;99.90
1678;DHT22;6034;46.864;15.216;2022-12-20T03:20:09;-1.00;99.90
1678;DHT22;6034;46.864;15.216;2022-12-20T03:22:38;-0.90;99.90
1678;DHT22;6034;46.864;15.216;2022-12-20T03:25:05;-0.90;99.90
1678;DHT22;6034;46.864;15.216;2022-12-20T03:27:32;-0.90;99.90
1678;DHT22;6034;46.864;15.216;2022-12-20T03:29:59;-0.90;99.90
1678;DHT22;6034;46.864;15.216;2022-12-20T03:32:26;-0.90;99.90
1678;DHT22;6034;46.864;15.216;2022-12-20T03:34:53;-1.00;99.90
1678;DHT22;6034;46.864;15.216;2022-12-20T03:37:20;-0.90;99.90
1678;DHT22;6034;46.864;15.216;2022-12-20T03:39:48;-1.00;99.90
1678;DHT22;6034;46.864;15.216;2022-12-20T03:42:15;-1.00;99.90
1678;DHT22;6034;46.864;15.216;2022-12-20T03:44:42;-0.90;99.90
1678;DHT22;6034;46.864;15.216;2022-12-20T03:47:09;-1.10;99.90
1678;DHT22;6034;46.864;15.216;2022-12-20T03:49:36;-1.00;99.90
1678;DHT22;6034;46.864;15.216;2022-12-20T03:52:03;-1.00;99.90
1678;DHT22;6034;46.864;15.216;2022-12-20T03:54:30;-1.20;99.90
1678;DHT22;6034;46.864;15.216;2022-12-20T03:56:58;-1.00;99.90
1678;DHT22;6034;46.864;15.216;2022-12-20T03:59:25;-1.00;99.90
1678;DHT22;6034;46.864;15.216;2022-12-20T04:01:52;-0.90;99.90
1678;DHT22;6034;46.864;15.216;2022-12-20T04:04:19;-0.90;99.90
1678;DHT22;6034;46.864;15.216;2022-12-20T04:06:46;-0.90;99.90
1678;DHT22;6034;46.864;15.216;2022-12-20T04:09:13;-1.00;99.90
1678;DHT22;6034;46.864;15.216;2022-12-20T04:11:41;-0.90;99.90
1678;DHT22;6034;46.864;15.216;2022-12-20T04:14:09;-0.90;99.90
1678;DHT22;6034;46.864;15.216;2022-12-20T04:16:37;-0.90;99.90
1678;DHT22;6034;46.864;15.216;2022-12-20T04:19:04;-0.90;99.90
1678;DHT22;6034;46.864;15.216;2022-12-20T04:21:31;-0.90;99.90
1678;DHT22;6034;46.864;15.216;2022-12-20T04:23:59;-0.90;99.90
1678;DHT22;6034;46.864;15.216;2022-12-20T04:26:26;-0.90;99.90
1678;DHT22;6034;46.864;15.216;2022-12-20T04:28:53;-0.90;99.90
1678;DHT22;6034;46.864;15.216;2022-12-20T04:31:22;-0.90;99.90
1678;DHT22;6034;46.864;15.216;2022-12-20T04:33:49;-0.90;99.90
1678;DHT22;6034;46.864;15.216;2022-12-20T04:36:16;-0.90;99.90
1678;DHT22;6034;46.864;15.216;2022-12-20T04:38:43;-0.80;99.90
1678;DHT22;6034;46.864;15.216;2022-12-20T04:41:10;-1.20;99.90
1678;DHT22;6034;46.864;15.216;2022-12-20T04:43:47;-1.40;99.90
1678;DHT22;6034;46.864;15.216;2022-12-20T04:46:14;-1.30;99.90
1678;DHT22;6034;46.864;15.216;2022-12-20T04:48:43;-1.70;99.90
1678;DHT22;6034;46.864;15.216;2022-12-20T04:51:10;-1.50;99.90
1678;DHT22;6034;46.864;15.216;2022-12-20T04:53:37;-1.80;99.90
1678;DHT22;6034;46.864;15.216;2022-12-20T04:56:12;-1.70;99.90
1678;DHT22;6034;46.864;15.216;2022-12-20T04:58:39;-1.90;99.90
1678;DHT22;6034;46.864;15.216;2022-12-20T05:01:06;-1.80;99.90
1678;DHT22;6034;46.864;15.216;2022-12-20T05:03:33;-1.50;99.90
1678;DHT22;6034;46.864;15.216;2022-12-20T05:06:02;-1.50;99.90
1678;DHT22;6034;46.864;15.216;2022-12-20T05:08:29;-1.60;99.90
1678;DHT22;6034;46.864;15.216;2022-12-20T05:10:56;-1.60;99.90
1678;DHT22;6034;46.864;15.216;2022-12-20T05:13:23;-1.40;99.90
1678;DHT22;6034;46.864;15.216;2022-12-20T05:15:50;-1.30;99.90
1678;DHT22;6034;46.864;15.216;2022-12-20T05:18:18;-1.30;99.90
1678;DHT22;6034;46.864;15.216;2022-12-20T05:20:45;-1.30;99.90
1678;DHT22;6034;46.864;15.216;2022-12-20T05:23:13;-1.20;99.90
1678;DHT22;6034;46.864;15.216;2022-12-20T05:25:58;-1.20;99.90
1678;DHT22;6034;46.864;15.216;2022-12-20T05:28:43;-1.20;99.90
1678;DHT22;6034;46.864;15.216;2022-12-20T05:31:10;-1.20;99.90
1678;DHT22;6034;46.864;15.216;2022-12-20T05:33:37;-1.20;99.90
1678;DHT22;6034;46.864;15.216;2022-12-20T05:36:04;-1.20;99.90
1678;DHT22;6034;46.864;15.216;2022-12-20T05:38:33;-1.10;99.90
1678;DHT22;6034;46.864;15.216;2022-12-20T05:40:59;-1.10;99.90
1678;DHT22;6034;46.864;15.216;2022-12-20T05:43:29;-1.10;99.90
1678;DHT22;6034;46.864;15.216;2022-12-20T05:45:56;-1.00;99.90
1678;DHT22;6034;46.864;15.216;2022-12-20T05:48:23;-1.10;99.90
1678;DHT22;6034;46.864;15.216;2022-12-20T05:50:50;-1.20;99.90
1678;DHT22;6034;46.864;15.216;2022-12-20T05:53:17;-1.30;99.90
1678;DHT22;6034;46.864;15.216;2022-12-20T05:55:46;-1.30;99.90
1678;DHT22;6034;46.864;15.216;2022-12-20T05:58:13;-1.20;99.90
1678;DHT22;6034;46.864;15.216;2022-12-20T06:00:41;-1.30;99.90
1678;DHT22;6034;46.864;15.216;2022-12-20T06:03:09;-1.40;99.90
1678;DHT22;6034;46.864;15.216;2022-12-20T06:05:38;-1.50;99.90
1678;DHT22;6034;46.864;15.216;2022-12-20T06:08:05;-1.40;99.90
1678;DHT22;6034;46.864;15.216;2022-12-20T06:10:33;-1.30;99.90
1678;DHT22;6034;46.864;15.216;2022-12-20T06:13:02;-1.30;99.90
1678;DHT22;6034;46.864;15.216;2022-12-20T06:15:29;-1.30;99.90
1678;DHT22;6034;46.864;15.216;2022-12-20T06:17:56;-1.20;99.90
1678;DHT22;6034;46.864;15.216;2022-12-20T06:20:23;-1.30;99.90
1678;DHT22;6034;46.864;15.216;2022-12-20T06:22:50;-1.30;99.90
1678;DHT22;6034;46.864;15.216;2022-12-20T06:25:18;-1.20;99.90
1678;DHT22;6034;46.864;15.216;2022-12-20T06:27:45;-1.20;99.90
1678;DHT22;6034;46.864;15.216;2022-12-20T06:30:13;-1.20;99.90
1678;DHT22;6034;46.864;15.216;2022-12-20T06:32:40;-1.10;99.90
1678;DHT22;6034;46.864;15.216;2022-12-20T06:35:08;-1.20;99.90
1678;DHT22;6034;46.864;15.216;2022-12-20T06:37:35;-1.20;99.90
1678;DHT22;6034;46.864;15.216;2022-12-20T06:40:05;-1.30;99.90
1678;DHT22;6034;46.864;15.216;2022-12-20T06:42:32;-1.40;99.90
1678;DHT22;6034;46.864;15.216;2022-12-20T06:44:59;-1.20;99.90
1678;DHT22;6034;46.864;15.216;2022-12-20T06:47:27;-1.20;99.90
1678;DHT22;6034;46.864;15.216;2022-12-20T06:49:54;-1.10;99.90
1678;DHT22;6034;46.864;15.216;2022-12-20T06:52:21;-1.20;99.90
1678;DHT22;6034;46.864;15.216;2022-12-20T06:54:48;-1.20;99.90
1678;DHT22;6034;46.864;15.216;2022-12-20T06:57:15;-1.20;99.90
1678;DHT22;6034;46.864;15.216;2022-12-20T06:59:42;-1.20;99.90
1678;DHT22;6034;46.864;15.216;2022-12-20T07:02:09;-1.30;99.90
1678;DHT22;6034;46.864;15.216;2022-12-20T07:04:38;-1.30;99.90
1678;DHT22;6034;46.864;15.216;2022-12-20T07:07:05;-1.30;99.90
1678;DHT22;6034;46.864;15.216;2022-12-20T07:09:32;-1.40;99.90
1678;DHT22;6034;46.864;15.216;2022-12-20T07:11:59;-1.20;99.90
1678;DHT22;6034;46.864;15.216;2022-12-20T07:14:28;-1.20;99.90
1678;DHT22;6034;46.864;15.216;2022-12-20T07:16:58;-1.20;99.90
1678;DHT22;6034;46.864;15.216;2022-12-20T07:19:25;-1.40;99.90
1678;DHT22;6034;46.864;15.216;2022-12-20T07:21:53;-1.40;99.90
1678;DHT22;6034;46.864;15.216;2022-12-20T07:24:21;-1.60;99.90
1678;DHT22;6034;46.864;15.216;2022-12-20T07:26:48;-1.50;99.90
1678;DHT22;6034;46.864;15.216;2022-12-20T07:29:15;-1.50;99.90
1678;DHT22;6034;46.864;15.216;2022-12-20T07:31:42;-1.30;99.90
1678;DHT22;6034;46.864;15.216;2022-12-20T07:34:09;-1.30;99.90
1678;DHT22;6034;46.864;15.216;2022-12-20T07:36:36;-1.20;99.90
1678;DHT22;6034;46.864;15.216;2022-12-20T07:39:04;-1.20;99.90
1678;DHT22;6034;46.864;15.216;2022-12-20T07:41:31;-1.10;99.90
1678;DHT22;6034;46.864;15.216;2022-12-20T07:43:58;-1.20;99.90
1678;DHT22;6034;46.864;15.216;2022-12-20T07:46:25;-1.30;99.90
1678;DHT22;6034;46.864;15.216;2022-12-20T07:48:52;-1.30;99.90
1678;DHT22;6034;46.864;15.216;2022-12-20T07:51:20;-1.20;99.90
1678;DHT22;6034;46.864;15.216;2022-12-20T07:53:49;-1.10;99.90
1678;DHT22;6034;46.864;15.216;2022-12-20T07:56:18;-1.20;99.90
1678;DHT22;6034;46.864;15.216;2022-12-20T07:58:46;-1.40;99.90
1678;DHT22;6034;46.864;15.216;2022-12-20T08:01:14;-1.20;99.90
1678;DHT22;6034;46.864;15.216;2022-12-20T08:03:42;-1.20;99.90
1678;DHT22;6034;46.864;15.216;2022-12-20T08:06:10;-1.20;99.90
1678;DHT22;6034;46.864;15.216;2022-12-20T08:08:39;-1.20;99.90
1678;DHT22;6034;46.864;15.216;2022-12-20T08:11:07;-1.10;99.90
1678;DHT22;6034;46.864;15.216;2022-12-20T08:13:36;-1.10;99.90
1678;DHT22;6034;46.864;15.216;2022-12-20T08:16:03;-1.20;99.90
1678;DHT22;6034;46.864;15.216;2022-12-20T08:18:30;-1.20;99.90
1678;DHT22;6034;46.864;15.216;2022-12-20T08:20:57;-1.20;99.90
1678;DHT22;6034;46.864;15.216;2022-12-20T08:23:25;-1.40;99.90
1678;DHT22;6034;46.864;15.216;2022-12-20T08:25:52;-1.50;99.90
1678;DHT22;6034;46.864;15.216;2022-12-20T08:28:19;-1.30;99.90
1678;DHT22;6034;46.864;15.216;2022-12-20T08:30:47;-1.20;99.90
1678;DHT22;6034;46.864;15.216;2022-12-20T08:33:14;-1.40;99.90
1678;DHT22;6034;46.864;15.216;2022-12-20T08:35:41;-1.50;99.90
1678;DHT22;6034;46.864;15.216;2022-12-20T08:38:08;-1.60;99.90
1678;DHT22;6034;46.864;15.216;2022-12-20T08:40:35;-1.30;99.90
1678;DHT22;6034;46.864;15.216;2022-12-20T08:43:02;-1.20;99.90
1678;DHT22;6034;46.864;15.216;2022-12-20T08:45:29;-1.10;99.90
1678;DHT22;6034;46.864;15.216;2022-12-20T08:47:58;-1.10;99.90
1678;DHT22;6034;46.864;15.216;2022-12-20T08:50:25;-1.20;99.90
1678;DHT22;6034;46.864;15.216;2022-12-20T08:52:52;-1.20;99.90
1678;DHT22;6034;46.864;15.216;2022-12-20T08:55:19;-1.20;99.90
1678;DHT22;6034;46.864;15.216;2022-12-20T08:57:46;-1.10;99.90
1678;DHT22;6034;46.864;15.216;2022-12-20T09:00:13;-1.10;99.90
1678;DHT22;6034;46.864;15.216;2022-12-20T09:02:40;-1.10;99.90
1678;DHT22;6034;46.864;15.216;2022-12-20T09:05:09;-1.00;99.90
1678;DHT22;6034;46.864;15.216;2022-12-20T09:07:36;-1.30;99.90
1678;DHT22;6034;46.864;15.216;2022-12-20T09:10:03;-1.20;99.90
1678;DHT22;6034;46.864;15.216;2022-12-20T09:12:30;-1.10;99.90
1678;DHT22;6034;46.864;15.216;2022-12-20T09:14:57;-1.20;99.90
1678;DHT22;6034;46.864;15.216;2022-12-20T09:17:24;-1.00;99.90
1678;DHT22;6034;46.864;15.216;2022-12-20T09:19:51;-1.00;99.90
1678;DHT22;6034;46.864;15.216;2022-12-20T09:22:21;-0.90;99.90
1678;DHT22;6034;46.864;15.216;2022-12-20T09:24:48;-0.90;99.90
1678;DHT22;6034;46.864;15.216;2022-12-20T09:27:15;-0.90;99.90
1678;DHT22;6034;46.864;15.216;2022-12-20T09:29:42;-0.80;99.90
1678;DHT22;6034;46.864;15.216;2022-12-20T09:32:09;-0.80;99.90
1678;DHT22;6034;46.864;15.216;2022-12-20T09:34:37;-0.80;99.90
1678;DHT22;6034;46.864;15.216;2022-12-20T09:37:04;-0.90;99.90
1678;DHT22;6034;46.864;15.216;2022-12-20T09:39:33;-0.90;99.90
1678;DHT22;6034;46.864;15.216;2022-12-20T09:42:00;-0.80;99.90
1678;DHT22;6034;46.864;15.216;2022-12-20T09:44:33;-0.90;99.90
1678;DHT22;6034;46.864;15.216;2022-12-20T09:47:02;-0.80;99.90
1678;DHT22;6034;46.864;15.216;2022-12-20T09:49:30;-0.90;99.90
1678;DHT22;6034;46.864;15.216;2022-12-20T09:54:47;-1.10;99.90
1678;DHT22;6034;46.864;15.216;2022-12-20T09:57:18;-1.30;99.90
1678;DHT22;6034;46.864;15.216;2022-12-20T09:59:47;-1.40;99.90
1678;DHT22;6034;46.864;15.216;2022-12-20T10:02:15;-1.30;99.90
1678;DHT22;6034;46.864;15.216;2022-12-20T10:04:45;-1.10;99.90
1678;DHT22;6034;46.864;15.216;2022-12-20T10:07:16;-1.10;99.90
1678;DHT22;6034;46.864;15.216;2022-12-20T10:09:52;-1.10;99.90
1678;DHT22;6034;46.864;15.216;2022-12-20T10:12:24;-1.30;99.90
1678;DHT22;6034;46.864;15.216;2022-12-20T10:14:57;-1.60;99.90
1678;DHT22;6034;46.864;15.216;2022-12-20T10:17:30;-1.50;99.90
1678;DHT22;6034;46.864;15.216;2022-12-20T10:20:06;-1.40;99.90
1678;DHT22;6034;46.864;15.216;2022-12-20T10:22:37;-1.50;99.90
1678;DHT22;6034;46.864;15.216;2022-12-20T10:25:12;-1.60;99.90
1678;DHT22;6034;46.864;15.216;2022-12-20T10:27:41;-1.60;99.90
1678;DHT22;6034;46.864;15.216;2022-12-20T10:30:10;-1.70;99.90
1678;DHT22;6034;46.864;15.216;2022-12-20T10:32:37;-1.40;99.90
1678;DHT22;6034;46.864;15.216;2022-12-20T10:35:14;-1.40;99.90
1678;DHT22;6034;46.864;15.216;2022-12-20T10:37:44;-1.50;99.90
1678;DHT22;6034;46.864;15.216;2022-12-20T10:40:26;-1.50;99.90
1678;DHT22;6034;46.864;15.216;2022-12-20T10:42:53;-1.40;99.90
1678;DHT22;6034;46.864;15.216;2022-12-20T10:45:25;-1.30;99.90
1678;DHT22;6034;46.864;15.216;2022-12-20T10:47:56;-1.20;99.90
1678;DHT22;6034;46.864;15.216;2022-12-20T10:50:24;-1.10;99.90
1678;DHT22;6034;46.864;15.216;2022-12-20T10:53:01;-1.00;99.90
1678;DHT22;6034;46.864;15.216;2022-12-20T10:55:35;-0.90;99.90
1678;DHT22;6034;46.864;15.216;2022-12-20T10:58:03;-0.80;99.90
1678;DHT22;6034;46.864;15.216;2022-12-20T11:00:32;-0.90;99.90
1678;DHT22;6034;46.864;15.216;2022-12-20T11:03:09;-0.80;99.90
1678;DHT22;6034;46.864;15.216;2022-12-20T11:05:37;-0.80;99.90
1678;DHT22;6034;46.864;15.216;2022-12-20T11:08:12;-0.80;99.90
1678;DHT22;6034;46.864;15.216;2022-12-20T11:10:41;-1.10;99.90
1678;DHT22;6034;46.864;15.216;2022-12-20T11:13:17;-1.20;99.90
1678;DHT22;6034;46.864;15.216;2022-12-20T11:15:46;-1.10;99.90
1678;DHT22;6034;46.864;15.216;2022-12-20T11:18:14;-1.10;99.90
1678;DHT22;6034;46.864;15.216;2022-12-20T11:20:46;-1.20;99.90
1678;DHT22;6034;46.864;15.216;2022-12-20T11:23:18;-1.30;99.90
1678;DHT22;6034;46.864;15.216;2022-12-20T11:25:52;-1.20;99.90
1678;DHT22;6034;46.864;15.216;2022-12-20T11:31:08;-1.00;99.90
1678;DHT22;6034;46.864;15.216;2022-12-20T11:33:40;-0.90;99.90
1678;DHT22;6034;46.864;15.216;2022-12-20T11:36:14;-0.80;99.90
1678;DHT22;6034;46.864;15.216;2022-12-20T11:38:47;-0.80;99.90
1678;DHT22;6034;46.864;15.216;2022-12-20T11:41:17;-0.70;99.90
1678;DHT22;6034;46.864;15.216;2022-12-20T11:43:50;-0.70;99.90
1678;DHT22;6034;46.864;15.216;2022-12-20T11:46:26;-0.60;99.90
1678;DHT22;6034;46.864;15.216;2022-12-20T11:51:23;-0.60;99.90
1678;DHT22;6034;46.864;15.216;2022-12-20T11:53:55;-0.60;99.90
1678;DHT22;6034;46.864;15.216;2022-12-20T11:56:25;-0.70;99.90
1678;DHT22;6034;46.864;15.216;2022-12-20T11:58:56;-0.60;99.90
1678;DHT22;6034;46.864;15.216;2022-12-20T12:01:27;-0.60;99.90
1678;DHT22;6034;46.864;15.216;2022-12-20T12:03:58;-0.50;99.90
1678;DHT22;6034;46.864;15.216;2022-12-20T12:06:29;-0.60;99.90
1678;DHT22;6034;46.864;15.216;2022-12-20T12:09:04;-0.90;99.90
1678;DHT22;6034;46.864;15.216;2022-12-20T12:11:35;-0.90;99.90
1678;DHT22;6034;46.864;15.216;2022-12-20T12:14:04;-1.30;99.90
1678;DHT22;6034;46.864;15.216;2022-12-20T12:16:32;-1.10;99.90
1678;DHT22;6034;46.864;15.216;2022-12-20T12:19:00;-1.40;99.90
1678;DHT22;6034;46.864;15.216;2022-12-20T12:21:30;-1.40;99.90
1678;DHT22;6034;46.864;15.216;2022-12-20T12:24:00;-1.00;99.90
1678;DHT22;6034;46.864;15.216;2022-12-20T12:26:31;-1.10;99.90
1678;DHT22;6034;46.864;15.216;2022-12-20T12:29:01;-1.30;99.90
1678;DHT22;6034;46.864;15.216;2022-12-20T12:31:31;-1.30;99.90
1678;DHT22;6034;46.864;15.216;2022-12-20T12:34:05;-1.00;99.90
1678;DHT22;6034;46.864;15.216;2022-12-20T12:39:23;-1.00;99.90
1678;DHT22;6034;46.864;15.216;2022-12-20T12:42:06;-1.00;99.90
1678;DHT22;6034;46.864;15.216;2022-12-20T12:47:04;-0.80;99.90
1678;DHT22;6034;46.864;15.216;2022-12-20T12:49:32;-0.70;99.90
1678;DHT22;6034;46.864;15.216;2022-12-20T12:52:00;-0.70;99.90
1678;DHT22;6034;46.864;15.216;2022-12-20T12:54:29;-0.70;99.90
1678;DHT22;6034;46.864;15.216;2022-12-20T12:57:00;-0.70;99.90
1678;DHT22;6034;46.864;15.216;2022-12-20T13:08:15;-0.60;99.90
1678;DHT22;6034;46.864;15.216;2022-12-20T13:10:56;-0.60;99.90
1678;DHT22;6034;46.864;15.216;2022-12-20T13:13:23;-0.50;99.90
1678;DHT22;6034;46.864;15.216;2022-12-20T13:15:51;-0.50;99.90
1678;DHT22;6034;46.864;15.216;2022-12-20T13:18:22;-0.60;99.90
1678;DHT22;6034;46.864;15.216;2022-12-20T13:23:32;-0.60;99.90
1678;DHT22;6034;46.864;15.216;2022-12-20T13:25:59;-0.70;99.90
1678;DHT22;6034;46.864;15.216;2022-12-20T13:28:44;-0.80;99.90
1678;DHT22;6034;46.864;15.216;2022-12-20T13:33:59;-0.80;99.90
1678;DHT22;6034;46.864;15.216;2022-12-20T13:36:29;-0.60;99.90
1678;DHT22;6034;46.864;15.216;2022-12-20T13:38:59;-0.90;99.90
1678;DHT22;6034;46.864;15.216;2022-12-20T13:41:31;-0.90;99.90
1678;DHT22;6034;46.864;15.216;2022-12-20T13:44:00;-0.80;99.90
1678;DHT22;6034;46.864;15.216;2022-12-20T13:46:30;-0.80;99.90
1678;DHT22;6034;46.864;15.216;2022-12-20T13:49:01;-0.50;99.90
1678;DHT22;6034;46.864;15.216;2022-12-20T13:51:29;-0.60;99.90
1678;DHT22;6034;46.864;15.216;2022-12-20T13:53:56;-0.50;99.90
1678;DHT22;6034;46.864;15.216;2022-12-20T13:56:32;-0.60;99.90
1678;DHT22;6034;46.864;15.216;2022-12-20T13:59:02;-0.60;99.90
1678;DHT22;6034;46.864;15.216;2022-12-20T14:01:30;-0.50;99.90
1678;DHT22;6034;46.864;15.216;2022-12-20T14:04:01;-0.50;99.90
1678;DHT22;6034;46.864;15.216;2022-12-20T14:06:29;-0.60;99.90
1678;DHT22;6034;46.864;15.216;2022-12-20T14:08:56;-0.50;99.90
1678;DHT22;6034;46.864;15.216;2022-12-20T14:11:23;-0.70;99.90
1678;DHT22;6034;46.864;15.216;2022-12-20T14:13:53;-0.90;99.90
1678;DHT22;6034;46.864;15.216;2022-12-20T14:16:20;-1.00;99.90
1678;DHT22;6034;46.864;15.216;2022-12-20T14:18:48;-1.00;99.90
1678;DHT22;6034;46.864;15.216;2022-12-20T14:21:15;-0.90;99.90
1678;DHT22;6034;46.864;15.216;2022-12-20T14:23:44;-0.80;99.90
1678;DHT22;6034;46.864;15.216;2022-12-20T14:26:12;-0.60;99.90
1678;DHT22;6034;46.864;15.216;2022-12-20T14:28:41;-0.60;99.90
1678;DHT22;6034;46.864;15.216;2022-12-20T14:31:21;-0.50;99.90
1678;DHT22;6034;46.864;15.216;2022-12-20T14:33:49;-0.80;99.90
1678;DHT22;6034;46.864;15.216;2022-12-20T14:36:18;-0.60;99.90
1678;DHT22;6034;46.864;15.216;2022-12-20T14:38:46;-0.50;99.90
1678;DHT22;6034;46.864;15.216;2022-12-20T14:41:33;-0.50;99.90
1678;DHT22;6034;46.864;15.216;2022-12-20T14:44:02;-0.60;99.90
1678;DHT22;6034;46.864;15.216;2022-12-20T14:46:31;-0.80;99.90
1678;DHT22;6034;46.864;15.216;2022-12-20T14:49:06;-0.80;99.90
1678;DHT22;6034;46.864;15.216;2022-12-20T14:51:38;-0.90;99.90
1678;DHT22;6034;46.864;15.216;2022-12-20T14:54:05;-0.90;99.90
1678;DHT22;6034;46.864;15.216;2022-12-20T14:56:33;-0.90;99.90
1678;DHT22;6034;46.864;15.216;2022-12-20T14:59:00;-1.20;99.90
1678;DHT22;6034;46.864;15.216;2022-12-20T15:01:30;-1.20;99.90
1678;DHT22;6034;46.864;15.216;2022-12-20T15:03:58;-1.10;99.90
1678;DHT22;6034;46.864;15.216;2022-12-20T15:06:30;-1.20;99.90
1678;DHT22;6034;46.864;15.216;2022-12-20T15:08:57;-0.80;99.90
1678;DHT22;6034;46.864;15.216;2022-12-20T15:11:24;-0.80;99.90
1678;DHT22;6034;46.864;15.216;2022-12-20T15:13:52;-0.80;99.90
1678;DHT22;6034;46.864;15.216;2022-12-20T15:16:20;-0.70;99.90
1678;DHT22;6034;46.864;15.216;2022-12-20T15:18:48;-0.80;99.90
1678;DHT22;6034;46.864;15.216;2022-12-20T15:21:23;-0.90;99.90
1678;DHT22;6034;46.864;15.216;2022-12-20T15:23:52;-0.80;99.90
1678;DHT22;6034;46.864;15.216;2022-12-20T15:26:20;-1.00;99.90
1678;DHT22;6034;46.864;15.216;2022-12-20T15:28:47;-1.30;99.90
1678;DHT22;6034;46.864;15.216;2022-12-20T15:31:15;-1.40;99.90
1678;DHT22;6034;46.864;15.216;2022-12-20T15:33:43;-1.50;99.90
1678;DHT22;6034;46.864;15.216;2022-12-20T15:38:40;-1.30;99.90
1678;DHT22;6034;46.864;15.216;2022-12-20T15:41:10;-1.30;99.90
1678;DHT22;6034;46.864;15.216;2022-12-20T15:43:40;-1.40;99.90
1678;DHT22;6034;46.864;15.216;2022-12-20T15:46:07;-1.20;99.90
1678;DHT22;6034;46.864;15.216;2022-12-20T15:48:34;-1.10;99.90
1678;DHT22;6034;46.864;15.216;2022-12-20T15:51:01;-1.00;99.90
1678;DHT22;6034;46.864;15.216;2022-12-20T15:53:30;-1.00;99.90
1678;DHT22;6034;46.864;15.216;2022-12-20T15:55:59;-1.20;99.90
1678;DHT22;6034;46.864;15.216;2022-12-20T16:00:54;-1.20;99.90
1678;DHT22;6034;46.864;15.216;2022-12-20T16:03:24;-1.50;99.90
1678;DHT22;6034;46.864;15.216;2022-12-20T16:05:52;-1.80;99.90
1678;DHT22;6034;46.864;15.216;2022-12-20T16:08:21;-1.80;99.90
1678;DHT22;6034;46.864;15.216;2022-12-20T16:10:48;-1.40;99.90
1678;DHT22;6034;46.864;15.216;2022-12-20T16:13:21;-1.40;99.90
1678;DHT22;6034;46.864;15.216;2022-12-20T16:15:48;-1.40;99.90
1678;DHT22;6034;46.864;15.216;2022-12-20T16:18:15;-1.20;99.90
1678;DHT22;6034;46.864;15.216;2022-12-20T16:20:43;-1.30;99.90
1678;DHT22;6034;46.864;15.216;2022-12-20T16:23:11;-1.50;99.90
1678;DHT22;6034;46.864;15.216;2022-12-20T16:25:41;-1.60;99.90
1678;DHT22;6034;46.864;15.216;2022-12-20T16:28:09;-1.60;99.90